createdAt,value
2022-11-05T00:01:53.315Z,100.00
2022-11-05T00:04:39.033Z,100.00
2022-11-05T00:07:47.296Z,100.00
2022-11-05T00:10:19.724Z,100.00
2022-11-05T00:13:05.566Z,100.00
2022-11-05T00:15:51.649Z,100.00
2022-11-05T00:18:19.094Z,100.00
2022-11-05T00:20:46.328Z,100.00
2022-11-05T00:23:31.950Z,100.00
2022-11-05T00:26:07.769Z,100.00
2022-11-05T00:28:35.784Z,100.00
2022-11-05T00:31:13.558Z,100.00
2022-11-05T00:33:42.787Z,100.00
2022-11-05T00:36:13.254Z,100.00
2022-11-05T00:38:40.556Z,100.00
2022-11-05T00:41:08.181Z,100.00
2022-11-05T00:43:54.017Z,100.00
2022-11-05T00:46:21.218Z,100.00
2022-11-05T00:49:08.770Z,100.00
2022-11-05T00:51:36.109Z,100.00
2022-11-05T00:54:03.365Z,100.00
2022-11-05T00:56:31.823Z,100.00
2022-11-05T00:58:59.028Z,100.00
2022-11-05T01:01:26.314Z,100.00
2022-11-05T01:03:54.030Z,100.00
2022-11-05T01:06:21.265Z,100.00
2022-11-05T01:08:49.791Z,100.00
2022-11-05T01:11:34.506Z,100.00
2022-11-05T01:14:07.774Z,100.00
2022-11-05T01:16:35.577Z,100.00
2022-11-05T01:19:03.438Z,100.00
2022-11-05T01:21:30.657Z,100.00
2022-11-05T01:23:57.907Z,100.00
2022-11-05T01:26:25.184Z,100.00
2022-11-05T01:28:53.819Z,100.00
2022-11-05T01:31:21.405Z,100.00
2022-11-05T01:33:48.672Z,100.00
2022-11-05T01:36:15.938Z,100.00
2022-11-05T01:38:43.168Z,100.00
2022-11-05T01:41:10.438Z,100.00
2022-11-05T01:43:56.433Z,100.00
2022-11-05T01:46:31.505Z,100.00
2022-11-05T01:49:07.279Z,100.00
2022-11-05T01:51:34.523Z,100.00
2022-11-05T01:54:05.092Z,100.00
2022-11-05T01:56:38.421Z,100.00
2022-11-05T01:59:15.313Z,100.00
2022-11-05T02:01:43.055Z,100.00
2022-11-05T02:04:16.702Z,100.00
2022-11-05T02:06:46.223Z,100.00
2022-11-05T02:09:18.468Z,100.00
2022-11-05T02:11:46.091Z,100.00
2022-11-05T02:14:13.361Z,100.00
2022-11-05T02:16:46.619Z,100.00
2022-11-05T02:20:00.799Z,100.00
2022-11-05T02:23:01.831Z,100.00
2022-11-05T02:25:59.913Z,100.00
2022-11-05T02:28:54.655Z,100.00
2022-11-05T02:31:40.398Z,100.00
2022-11-05T02:34:16.055Z,100.00
2022-11-05T02:36:50.757Z,100.00
2022-11-05T02:39:23.996Z,100.00
2022-11-05T02:42:15.917Z,100.00
2022-11-05T02:44:55.956Z,100.00
2022-11-05T02:47:34.058Z,100.00
2022-11-05T02:50:24.150Z,100.00
2022-11-05T02:53:17.289Z,100.00
2022-11-05T02:55:54.088Z,100.00
2022-11-05T02:58:21.636Z,100.00
2022-11-05T03:00:56.446Z,100.00
2022-11-05T03:03:37.362Z,100.00
2022-11-05T03:06:32.338Z,100.00
2022-11-05T03:09:13.928Z,100.00
2022-11-05T03:12:09.340Z,100.00
2022-11-05T03:14:42.451Z,100.00
2022-11-05T03:17:40.715Z,100.00
2022-11-05T03:20:15.136Z,100.00
2022-11-05T03:23:10.910Z,100.00
2022-11-05T03:25:46.922Z,100.00
2022-11-05T03:28:17.270Z,100.00
2022-11-05T03:30:45.933Z,100.00
2022-11-05T03:33:18.192Z,100.00
2022-11-05T03:35:48.454Z,100.00
2022-11-05T03:38:29.441Z,100.00
2022-11-05T03:40:59.101Z,100.00
2022-11-05T03:43:30.183Z,100.00
2022-11-05T03:46:01.078Z,100.00
2022-11-05T03:48:29.444Z,100.00
2022-11-05T03:51:28.589Z,100.00
2022-11-05T03:54:02.999Z,100.00
2022-11-05T03:56:53.589Z,100.00
2022-11-05T03:59:21.116Z,100.00
2022-11-05T04:01:48.736Z,100.00
2022-11-05T04:04:16.250Z,100.00
2022-11-05T04:07:01.996Z,100.00
2022-11-05T04:09:47.780Z,100.00
2022-11-05T04:12:33.425Z,100.00
2022-11-05T04:15:02.890Z,100.00
2022-11-05T04:17:30.151Z,100.00
2022-11-05T04:20:16.242Z,100.00
2022-11-05T04:23:02.168Z,100.00
2022-11-05T04:25:29.400Z,100.00
2022-11-05T04:28:00.535Z,100.00
2022-11-05T04:30:27.881Z,100.00
2022-11-05T04:33:11.154Z,100.00
2022-11-05T04:35:45.449Z,100.00
2022-11-05T04:38:19.903Z,100.00
2022-11-05T04:40:48.170Z,100.00
2022-11-05T04:43:17.522Z,100.00
2022-11-05T04:45:45.547Z,100.00
2022-11-05T04:48:13.212Z,100.00
2022-11-05T04:50:40.495Z,100.00
2022-11-05T04:53:08.133Z,100.00
2022-11-05T04:55:35.469Z,100.00
2022-11-05T04:58:02.654Z,100.00
2022-11-05T05:00:29.928Z,100.00
2022-11-05T05:02:57.517Z,100.00
2022-11-05T05:05:24.777Z,100.00
2022-11-05T05:07:52.010Z,100.00
2022-11-05T05:10:19.287Z,100.00
2022-11-05T05:12:46.551Z,100.00
2022-11-05T05:15:13.830Z,100.00
2022-11-05T05:17:40.963Z,100.00
2022-11-05T05:20:26.858Z,100.00
2022-11-05T05:22:54.990Z,100.00
2022-11-05T05:25:22.886Z,100.00
2022-11-05T05:27:50.118Z,100.00
2022-11-05T05:30:17.668Z,100.00
2022-11-05T05:32:44.939Z,100.00
2022-11-05T05:35:12.360Z,100.00
2022-11-05T05:37:39.546Z,100.00
2022-11-05T05:40:07.216Z,100.00
2022-11-05T05:42:38.752Z,100.00
2022-11-05T05:45:09.725Z,100.00
2022-11-05T05:47:37.043Z,100.00
2022-11-05T05:50:04.559Z,100.00
2022-11-05T05:52:31.740Z,100.00
2022-11-05T05:55:01.031Z,100.00
2022-11-05T05:57:28.166Z,100.00
2022-11-05T05:59:55.387Z,100.00
2022-11-05T06:02:23.000Z,100.00
2022-11-05T06:04:50.477Z,100.00
2022-11-05T06:07:17.626Z,100.00
2022-11-05T06:09:44.808Z,100.00
2022-11-05T06:12:12.564Z,100.00
2022-11-05T06:14:39.879Z,100.00
2022-11-05T06:17:10.229Z,100.00
2022-11-05T06:19:37.401Z,100.00
2022-11-05T06:22:04.688Z,100.00
2022-11-05T06:24:31.942Z,100.00
2022-11-05T06:26:59.653Z,100.00
2022-11-05T06:29:27.100Z,100.00
2022-11-05T06:31:54.326Z,100.00
2022-11-05T06:34:21.587Z,100.00
2022-11-05T06:36:48.782Z,100.00
2022-11-05T06:39:15.988Z,100.00
2022-11-05T06:42:11.760Z,100.00
2022-11-05T06:44:31.990Z,100.00
2022-11-05T06:47:00.277Z,100.00
2022-11-05T06:49:27.462Z,100.00
2022-11-05T06:51:54.739Z,100.00
2022-11-05T06:54:21.932Z,100.00
2022-11-05T06:56:49.109Z,100.00
2022-11-05T06:59:16.314Z,100.00
2022-11-05T07:01:43.642Z,100.00
2022-11-05T07:04:15.567Z,100.00
2022-11-05T07:06:42.809Z,100.00
2022-11-05T07:09:10.011Z,100.00
2022-11-05T07:11:37.216Z,100.00
2022-11-05T07:14:04.501Z,100.00
2022-11-05T07:16:31.733Z,100.00
2022-11-05T07:18:59.114Z,100.00
2022-11-05T07:21:26.382Z,100.00
2022-11-05T07:23:53.673Z,100.00
2022-11-05T07:26:20.866Z,100.00
2022-11-05T07:28:48.105Z,100.00
2022-11-05T07:31:15.330Z,100.00
2022-11-05T07:33:42.699Z,100.00
2022-11-05T07:36:10.132Z,100.00
2022-11-05T07:38:37.605Z,100.00
2022-11-05T07:41:04.927Z,100.00
2022-11-05T07:43:32.137Z,100.00
2022-11-05T07:45:59.486Z,100.00
2022-11-05T07:48:26.710Z,100.00
2022-11-05T07:50:54.615Z,100.00
2022-11-05T07:53:21.844Z,100.00
2022-11-05T07:55:49.094Z,100.00
2022-11-05T07:58:16.307Z,100.00
2022-11-05T08:00:43.706Z,100.00
2022-11-05T08:03:16.867Z,100.00
2022-11-05T08:05:46.558Z,100.00
2022-11-05T08:08:14.900Z,100.00
2022-11-05T08:10:42.758Z,100.00
2022-11-05T08:13:10.666Z,100.00
2022-11-05T08:15:38.796Z,100.00
2022-11-05T08:18:21.700Z,100.00
2022-11-05T08:20:49.182Z,100.00
2022-11-05T08:23:16.620Z,100.00
2022-11-05T08:25:43.874Z,100.00
2022-11-05T08:28:12.979Z,100.00
2022-11-05T08:30:40.355Z,100.00
2022-11-05T08:33:10.754Z,100.00
2022-11-05T08:35:38.877Z,100.00
2022-11-05T08:38:07.829Z,100.00
2022-11-05T08:40:35.987Z,100.00
2022-11-05T08:43:04.721Z,99.82
2022-11-05T08:45:32.429Z,100.00
2022-11-05T08:48:15.024Z,100.00
2022-11-05T08:50:42.621Z,99.67
2022-11-05T08:53:10.956Z,99.26
2022-11-05T08:55:38.770Z,98.31
2022-11-05T08:58:09.120Z,97.65
2022-11-05T09:00:37.311Z,96.47
2022-11-05T09:03:06.432Z,97.14
2022-11-05T09:05:40.662Z,97.48
2022-11-05T09:08:11.092Z,98.19
2022-11-05T09:10:38.774Z,98.51
2022-11-05T09:13:06.550Z,96.75
2022-11-05T09:15:35.514Z,94.70
2022-11-05T09:18:05.551Z,94.06
2022-11-05T09:20:40.923Z,92.44
2022-11-05T09:23:09.800Z,92.02
2022-11-05T09:25:38.671Z,94.15
2022-11-05T09:28:26.170Z,95.13
2022-11-05T09:30:53.853Z,95.43
2022-11-05T09:33:23.202Z,92.21
2022-11-05T09:35:50.515Z,89.39
2022-11-05T09:38:17.933Z,93.19
2022-11-05T09:41:32.987Z,95.81
2022-11-05T09:44:06.928Z,95.39
2022-11-05T09:47:00.163Z,92.23
2022-11-05T09:49:35.159Z,88.83
2022-11-05T09:52:03.417Z,92.12
2022-11-05T09:54:33.565Z,91.25
2022-11-05T09:57:03.319Z,92.32
2022-11-05T09:59:33.133Z,85.28
2022-11-05T10:02:23.243Z,84.87
2022-11-05T10:04:56.459Z,87.10
2022-11-05T10:07:29.658Z,86.15
2022-11-05T10:10:03.767Z,84.82
2022-11-05T10:12:37.104Z,85.64
2022-11-05T10:15:16.418Z,85.87
2022-11-05T10:17:57.550Z,86.89
2022-11-05T10:20:38.577Z,85.56
2022-11-05T10:23:12.382Z,87.10
2022-11-05T10:25:42.691Z,90.22
2022-11-05T10:28:15.055Z,82.69
2022-11-05T10:30:42.827Z,82.49
2022-11-05T10:33:12.796Z,88.19
2022-11-05T10:35:50.544Z,89.86
2022-11-05T10:38:17.892Z,84.45
2022-11-05T10:40:53.157Z,84.14
2022-11-05T10:43:30.449Z,78.39
2022-11-05T10:46:23.869Z,78.55
2022-11-05T10:49:03.993Z,82.94
2022-11-05T10:51:33.143Z,81.52
2022-11-05T10:54:17.595Z,76.49
2022-11-05T10:56:45.179Z,78.06
2022-11-05T10:59:24.203Z,81.30
2022-11-05T11:02:04.429Z,82.81
2022-11-05T11:04:37.683Z,82.94
2022-11-05T11:07:05.674Z,83.29
2022-11-05T11:09:35.669Z,86.65
2022-11-05T11:12:17.316Z,85.34
2022-11-05T11:15:05.360Z,86.91
2022-11-05T11:17:34.068Z,81.74
2022-11-05T11:20:23.696Z,80.30
2022-11-05T11:23:01.635Z,84.27
2022-11-05T11:26:00.744Z,85.34
2022-11-05T11:28:40.357Z,80.75
2022-11-05T11:31:11.867Z,80.41
2022-11-05T11:33:40.832Z,76.10
2022-11-05T11:36:10.509Z,74.18
2022-11-05T11:38:38.189Z,77.06
2022-11-05T11:41:26.011Z,75.40
2022-11-05T11:44:13.186Z,76.60
2022-11-05T11:46:40.823Z,77.90
2022-11-05T11:49:50.563Z,77.81
2022-11-05T11:52:34.325Z,76.48
2022-11-05T11:55:21.049Z,70.58
2022-11-05T11:58:06.421Z,70.79
2022-11-05T12:00:39.209Z,72.29
2022-11-05T12:03:09.825Z,73.87
2022-11-05T12:05:41.969Z,73.53
2022-11-05T12:08:30.540Z,77.09
2022-11-05T12:11:16.574Z,76.11
2022-11-05T12:14:26.851Z,76.12
2022-11-05T12:17:10.895Z,74.43
2022-11-05T12:20:22.571Z,77.94
2022-11-05T12:23:00.167Z,72.44
2022-11-05T12:25:32.702Z,71.27
2022-11-05T12:28:12.064Z,73.95
2022-11-05T12:31:04.947Z,78.05
2022-11-05T12:33:56.481Z,75.84
2022-11-05T12:36:38.993Z,76.14
2022-11-05T12:39:20.228Z,76.74
2022-11-05T12:41:54.706Z,77.04
2022-11-05T12:44:37.297Z,77.95
2022-11-05T12:47:25.379Z,77.70
2022-11-05T12:50:18.658Z,76.13
2022-11-05T12:53:04.695Z,77.15
2022-11-05T12:55:45.507Z,77.50
2022-11-05T12:58:26.220Z,76.38
2022-11-05T13:01:02.947Z,75.90
2022-11-05T13:03:54.070Z,75.48
2022-11-05T13:06:48.542Z,75.32
2022-11-05T13:09:31.867Z,74.97
2022-11-05T13:12:03.711Z,72.65
2022-11-05T13:14:47.489Z,72.20
2022-11-05T13:17:18.879Z,72.66
2022-11-05T13:19:52.640Z,75.28
2022-11-05T13:22:39.423Z,73.25
2022-11-05T13:25:35.213Z,72.93
2022-11-05T13:28:05.249Z,74.83
2022-11-05T13:30:38.249Z,69.87
2022-11-05T13:33:13.014Z,71.71
2022-11-05T13:36:26.171Z,71.10
2022-11-05T13:39:16.833Z,72.04
2022-11-05T13:42:08.989Z,72.71
2022-11-05T13:45:07.805Z,75.56
2022-11-05T13:47:50.437Z,77.23
2022-11-05T13:50:55.527Z,77.83
2022-11-05T13:53:49.379Z,77.68
2022-11-05T13:56:39.364Z,77.30
2022-11-05T13:59:45.611Z,76.14
2022-11-05T14:02:25.566Z,76.14
2022-11-05T14:05:00.702Z,75.38
2022-11-05T14:07:44.141Z,77.39
2022-11-05T14:10:26.299Z,77.92
2022-11-05T14:12:54.928Z,76.67
2022-11-05T14:15:26.197Z,77.80
2022-11-05T14:18:36.974Z,75.44
2022-11-05T14:21:05.911Z,78.40
2022-11-05T14:23:41.233Z,78.21
2022-11-05T14:26:20.659Z,78.42
2022-11-05T14:28:50.128Z,79.47
2022-11-05T14:31:40.976Z,78.88
2022-11-05T14:34:11.657Z,79.02
2022-11-05T14:36:40.383Z,79.72
2022-11-05T14:39:18.876Z,81.60
2022-11-05T14:41:57.217Z,81.64
2022-11-05T14:44:25.466Z,82.41
2022-11-05T14:46:55.486Z,80.64
2022-11-05T14:49:25.790Z,81.01
2022-11-05T14:51:55.938Z,80.19
2022-11-05T14:54:35.784Z,81.67
2022-11-05T14:57:03.636Z,82.17
2022-11-05T14:59:35.091Z,82.91
2022-11-05T15:02:15.691Z,83.80
2022-11-05T15:04:47.548Z,84.62
2022-11-05T15:07:34.925Z,83.76
2022-11-05T15:10:14.580Z,84.19
2022-11-05T15:13:24.714Z,84.02
2022-11-05T15:15:55.793Z,84.60
2022-11-05T15:18:33.979Z,84.94
2022-11-05T15:21:03.044Z,85.26
2022-11-05T15:23:36.557Z,86.32
2022-11-05T15:26:07.441Z,85.85
2022-11-05T15:29:03.115Z,85.70
2022-11-05T15:31:31.899Z,85.93
2022-11-05T15:34:25.809Z,86.36
2022-11-05T15:37:09.943Z,85.96
2022-11-05T15:39:45.939Z,84.64
2022-11-05T15:42:15.250Z,83.90
2022-11-05T15:44:43.416Z,82.89
2022-11-05T15:47:16.876Z,83.85
2022-11-05T15:49:50.012Z,82.87
2022-11-05T15:52:20.200Z,83.35
2022-11-05T15:55:05.859Z,82.69
2022-11-05T15:57:33.348Z,83.20
2022-11-05T16:00:07.743Z,82.25
2022-11-05T16:02:36.478Z,84.26
2022-11-05T16:05:09.336Z,84.27
2022-11-05T16:07:36.694Z,84.96
2022-11-05T16:10:07.385Z,84.96
2022-11-05T16:12:38.855Z,84.64
2022-11-05T16:15:09.079Z,85.47
2022-11-05T16:17:57.648Z,87.07
2022-11-05T16:20:36.150Z,87.80
2022-11-05T16:23:06.241Z,87.88
2022-11-05T16:25:43.547Z,87.76
2022-11-05T16:28:25.237Z,87.11
2022-11-05T16:31:03.035Z,87.37
2022-11-05T16:33:46.429Z,87.84
2022-11-05T16:36:13.896Z,87.35
2022-11-05T16:38:41.448Z,86.91
2022-11-05T16:41:14.369Z,85.83
2022-11-05T16:43:49.555Z,85.90
2022-11-05T16:46:16.962Z,86.11
2022-11-05T16:48:44.258Z,87.05
2022-11-05T16:51:12.181Z,86.99
2022-11-05T16:53:39.469Z,87.20
2022-11-05T16:56:08.768Z,87.37
2022-11-05T16:58:35.962Z,88.05
2022-11-05T17:01:05.661Z,88.91
2022-11-05T17:03:32.895Z,89.34
2022-11-05T17:06:04.150Z,89.87
2022-11-05T17:08:31.693Z,89.58
2022-11-05T17:10:58.957Z,89.18
2022-11-05T17:13:26.202Z,89.37
2022-11-05T17:15:53.726Z,89.47
2022-11-05T17:18:23.664Z,89.47
2022-11-05T17:20:53.382Z,89.62
2022-11-05T17:23:22.821Z,90.21
2022-11-05T17:25:58.213Z,90.10
2022-11-05T17:28:36.615Z,90.69
2022-11-05T17:31:08.029Z,90.19
2022-11-05T17:33:35.257Z,90.38
2022-11-05T17:36:09.658Z,90.73
2022-11-05T17:38:37.074Z,91.57
2022-11-05T17:41:19.084Z,91.60
2022-11-05T17:43:46.841Z,91.72
2022-11-05T17:46:16.905Z,91.62
2022-11-05T17:48:44.853Z,91.84
2022-11-05T17:51:15.157Z,91.66
2022-11-05T17:53:42.943Z,91.78
2022-11-05T17:56:11.320Z,91.81
2022-11-05T17:58:39.180Z,92.54
2022-11-05T18:01:08.369Z,92.53
2022-11-05T18:03:35.809Z,92.60
2022-11-05T18:06:07.645Z,92.84
2022-11-05T18:08:34.983Z,93.41
2022-11-05T18:11:03.931Z,93.96
2022-11-05T18:13:31.074Z,94.00
2022-11-05T18:15:58.309Z,94.55
2022-11-05T18:18:25.491Z,94.20
2022-11-05T18:20:52.708Z,94.83
2022-11-05T18:23:19.916Z,94.53
2022-11-05T18:25:47.096Z,94.77
2022-11-05T18:28:14.680Z,94.67
2022-11-05T18:30:42.191Z,94.54
2022-11-05T18:33:09.955Z,95.14
2022-11-05T18:35:44.373Z,95.65
2022-11-05T18:38:11.789Z,95.72
2022-11-05T18:40:39.225Z,94.96
2022-11-05T18:43:06.391Z,95.87
2022-11-05T18:45:33.693Z,96.43
2022-11-05T18:48:02.080Z,96.82
2022-11-05T18:50:29.996Z,96.78
2022-11-05T18:52:57.510Z,96.75
2022-11-05T18:55:25.300Z,96.43
2022-11-05T18:57:52.520Z,96.68
2022-11-05T19:00:20.214Z,95.95
2022-11-05T19:02:47.509Z,96.19
2022-11-05T19:05:28.616Z,96.05
2022-11-05T19:07:56.841Z,96.29
2022-11-05T19:10:24.093Z,95.97
2022-11-05T19:12:51.321Z,97.23
2022-11-05T19:15:18.679Z,97.07
2022-11-05T19:17:46.654Z,97.12
2022-11-05T19:20:13.931Z,97.00
2022-11-05T19:22:41.126Z,97.06
2022-11-05T19:25:08.590Z,97.46
2022-11-05T19:27:37.457Z,96.35
2022-11-05T19:30:05.585Z,96.54
2022-11-05T19:32:32.734Z,96.74
2022-11-05T19:34:59.958Z,97.46
2022-11-05T19:37:27.322Z,96.90
2022-11-05T19:39:54.491Z,97.18
2022-11-05T19:42:21.985Z,97.68
2022-11-05T19:44:49.157Z,98.19
2022-11-05T19:47:16.401Z,98.01
2022-11-05T19:49:43.640Z,99.41
2022-11-05T19:52:10.937Z,99.11
2022-11-05T19:54:40.497Z,99.21
2022-11-05T19:57:07.717Z,99.75
2022-11-05T19:59:35.185Z,99.36
2022-11-05T20:02:02.513Z,99.65
2022-11-05T20:04:29.824Z,99.67
2022-11-05T20:06:57.175Z,99.84
2022-11-05T20:09:25.845Z,100.00
2022-11-05T20:11:54.791Z,99.75
2022-11-05T20:14:23.028Z,99.70
2022-11-05T20:16:50.869Z,99.73
2022-11-05T20:19:20.184Z,99.60
2022-11-05T20:21:47.678Z,99.80
2022-11-05T20:24:22.465Z,100.00
2022-11-05T20:26:56.114Z,100.00
2022-11-05T20:29:26.021Z,100.00
2022-11-05T20:31:57.027Z,100.00
2022-11-05T20:34:24.885Z,100.00
2022-11-05T20:36:52.086Z,100.00
2022-11-05T20:39:21.153Z,100.00
2022-11-05T20:41:48.326Z,100.00
2022-11-05T20:44:15.604Z,100.00
2022-11-05T20:46:42.780Z,100.00
2022-11-05T20:49:09.960Z,100.00
2022-11-05T20:51:37.302Z,100.00
2022-11-05T20:54:05.349Z,100.00
2022-11-05T20:56:35.308Z,100.00
2022-11-05T20:59:03.323Z,100.00
2022-11-05T21:01:32.315Z,100.00
2022-11-05T21:03:59.858Z,100.00
2022-11-05T21:06:27.089Z,100.00
2022-11-05T21:08:54.578Z,100.00
2022-11-05T21:11:22.153Z,100.00
2022-11-05T21:13:49.647Z,100.00
2022-11-05T21:16:18.844Z,100.00
2022-11-05T21:18:47.271Z,100.00
2022-11-05T21:21:17.433Z,100.00
2022-11-05T21:23:44.887Z,100.00
2022-11-05T21:26:14.314Z,100.00
2022-11-05T21:28:42.525Z,100.00
2022-11-05T21:31:10.111Z,100.00
2022-11-05T21:33:37.600Z,100.00
2022-11-05T21:36:09.951Z,100.00
2022-11-05T21:38:40.683Z,100.00
2022-11-05T21:41:08.609Z,100.00
2022-11-05T21:43:37.155Z,100.00
2022-11-05T21:46:05.098Z,100.00
2022-11-05T21:48:32.636Z,100.00
2022-11-05T21:51:20.459Z,100.00
2022-11-05T21:54:06.551Z,100.00
2022-11-05T21:56:52.810Z,100.00
2022-11-05T21:59:40.763Z,100.00
2022-11-05T22:02:09.138Z,100.00
2022-11-05T22:04:41.234Z,100.00
2022-11-05T22:07:09.895Z,100.00
2022-11-05T22:09:37.475Z,100.00
2022-11-05T22:12:05.437Z,100.00
2022-11-05T22:14:32.937Z,100.00
2022-11-05T22:17:00.303Z,100.00
2022-11-05T22:19:27.801Z,100.00
2022-11-05T22:21:54.934Z,100.00
2022-11-05T22:24:22.285Z,100.00
2022-11-05T22:26:49.528Z,100.00
2022-11-05T22:29:17.102Z,100.00
2022-11-05T22:31:44.286Z,100.00
2022-11-05T22:34:12.125Z,100.00
2022-11-05T22:36:39.805Z,100.00
2022-11-05T22:39:07.360Z,100.00
2022-11-05T22:41:34.857Z,100.00
2022-11-05T22:44:03.471Z,100.00
2022-11-05T22:46:31.313Z,100.00
2022-11-05T22:48:59.021Z,100.00
2022-11-05T22:51:28.642Z,100.00
2022-11-05T22:53:56.096Z,100.00
2022-11-05T22:56:25.161Z,100.00
2022-11-05T22:58:52.776Z,100.00
2022-11-05T23:01:22.067Z,100.00
2022-11-05T23:03:49.805Z,100.00
2022-11-05T23:06:38.266Z,100.00
2022-11-05T23:09:31.552Z,100.00
2022-11-05T23:11:59.088Z,100.00
2022-11-05T23:14:26.765Z,100.00
2022-11-05T23:17:12.660Z,100.00
2022-11-05T23:19:59.252Z,100.00
2022-11-05T23:22:47.637Z,100.00
2022-11-05T23:25:22.055Z,100.00
2022-11-05T23:27:50.720Z,100.00
2022-11-05T23:30:20.617Z,100.00
2022-11-05T23:32:48.916Z,100.00
2022-11-05T23:35:17.800Z,100.00
2022-11-05T23:38:03.501Z,100.00
2022-11-05T23:40:51.528Z,100.00
2022-11-05T23:43:37.293Z,100.00
2022-11-05T23:46:23.211Z,100.00
2022-11-05T23:48:52.476Z,100.00
2022-11-05T23:51:19.646Z,100.00
2022-11-05T23:53:46.996Z,100.00
2022-11-05T23:56:15.202Z,100.00
2022-11-05T23:58:42.985Z,100.00
